createdAt,value
2018-08-22T00:00:58.797Z,0.00
2018-08-22T00:01:57.681Z,0.00
2018-08-22T00:02:58.696Z,0.00
2018-08-22T00:03:57.636Z,0.00
2018-08-22T00:04:57.691Z,0.00
2018-08-22T00:05:57.612Z,0.00
2018-08-22T00:06:57.614Z,0.00
2018-08-22T00:07:57.570Z,0.00
2018-08-22T00:08:57.638Z,0.00
2018-08-22T00:09:57.497Z,0.00
2018-08-22T00:10:57.523Z,0.00
2018-08-22T00:11:57.451Z,0.00
2018-08-22T00:12:57.548Z,0.00
2018-08-22T00:13:57.415Z,0.00
2018-08-22T00:14:57.497Z,0.00
2018-08-22T00:15:57.357Z,0.00
2018-08-22T00:16:57.361Z,0.00
2018-08-22T00:17:57.319Z,0.00
2018-08-22T00:18:57.375Z,0.00
2018-08-22T00:19:57.261Z,0.00
2018-08-22T00:20:58.314Z,0.00
2018-08-22T00:21:57.262Z,0.00
2018-08-22T00:22:57.292Z,0.00
2018-08-22T00:23:57.173Z,0.00
2018-08-22T00:24:57.208Z,0.00
2018-08-22T00:25:57.145Z,0.00
2018-08-22T00:26:57.133Z,0.00
2018-08-22T00:27:57.090Z,0.00
2018-08-22T00:28:57.135Z,0.00
2018-08-22T00:29:57.031Z,0.00
2018-08-22T00:30:57.064Z,0.00
2018-08-22T00:31:56.986Z,0.00
2018-08-22T00:32:57.055Z,0.00
2018-08-22T00:33:56.948Z,0.00
2018-08-22T00:35:43.964Z,0.00
2018-08-22T00:36:43.909Z,0.00
2018-08-22T00:37:43.878Z,0.00
2018-08-22T00:38:43.856Z,0.00
2018-08-22T00:39:43.836Z,0.00
2018-08-22T00:40:43.816Z,0.00
2018-08-22T00:41:43.857Z,0.00
2018-08-22T00:42:43.758Z,0.00
2018-08-22T00:43:43.744Z,0.00
2018-08-22T00:44:43.764Z,0.00
2018-08-22T00:45:43.704Z,0.00
2018-08-22T00:46:43.671Z,0.00
2018-08-22T00:47:43.738Z,0.00
2018-08-22T00:48:43.625Z,0.00
2018-08-22T00:49:43.628Z,0.00
2018-08-22T00:50:43.600Z,0.00
2018-08-22T00:52:30.343Z,0.00
2018-08-22T00:53:30.323Z,0.00
2018-08-22T00:54:30.278Z,0.00
2018-08-22T00:55:30.253Z,0.00
2018-08-22T00:56:30.227Z,0.00
2018-08-22T00:57:30.217Z,0.00
2018-08-22T00:58:30.192Z,0.00
2018-08-22T00:59:30.154Z,0.00
2018-08-22T01:00:30.147Z,0.00
2018-08-22T01:01:30.111Z,0.00
2018-08-22T01:02:30.093Z,0.00
2018-08-22T01:03:31.151Z,0.00
2018-08-22T01:04:30.053Z,0.00
2018-08-22T01:05:30.043Z,0.00
2018-08-22T01:06:29.990Z,0.00
2018-08-22T01:07:32.003Z,0.00
2018-08-22T01:08:29.951Z,0.00
2018-08-22T01:09:29.938Z,0.00
2018-08-22T01:10:29.904Z,0.00
2018-08-22T01:11:29.976Z,0.00
2018-08-22T01:12:29.851Z,0.00
2018-08-22T01:13:29.886Z,0.00
2018-08-22T01:14:29.808Z,0.00
2018-08-22T01:15:30.834Z,0.00
2018-08-22T01:16:29.759Z,0.00
2018-08-22T01:17:29.807Z,0.00
2018-08-22T01:18:29.719Z,0.00
2018-08-22T01:19:29.720Z,0.00
2018-08-22T01:20:29.682Z,0.00
2018-08-22T01:21:29.714Z,0.00
2018-08-22T01:22:29.622Z,0.00
2018-08-22T01:23:29.631Z,0.00
2018-08-22T01:24:29.569Z,0.00
2018-08-22T01:25:29.646Z,0.00
2018-08-22T01:26:29.532Z,0.00
2018-08-22T01:27:29.569Z,0.00
2018-08-22T01:28:29.496Z,0.00
2018-08-22T01:29:29.579Z,0.00
2018-08-22T01:30:29.430Z,0.00
2018-08-22T01:31:31.053Z,0.00
2018-08-22T01:32:29.396Z,0.00
2018-08-22T01:33:31.444Z,0.00
2018-08-22T01:34:29.344Z,0.00
2018-08-22T01:35:29.401Z,0.00
2018-08-22T01:36:29.299Z,0.00
2018-08-22T01:37:29.328Z,0.00
2018-08-22T01:38:29.252Z,0.00
2018-08-22T01:39:31.276Z,0.00
2018-08-22T01:40:29.204Z,0.00
2018-08-22T01:41:29.238Z,0.00
2018-08-22T01:42:29.179Z,0.00
2018-08-22T01:43:29.144Z,0.00
2018-08-22T01:44:29.118Z,0.00
2018-08-22T01:46:15.539Z,0.00
2018-08-22T01:47:15.490Z,0.00
2018-08-22T01:48:15.466Z,0.00
2018-08-22T01:49:15.447Z,0.00
2018-08-22T01:50:15.474Z,0.00
2018-08-22T01:51:15.392Z,0.00
2018-08-22T01:52:15.382Z,0.00
2018-08-22T01:53:15.349Z,0.00
2018-08-22T01:54:15.324Z,0.00
2018-08-22T01:55:15.303Z,0.00
2018-08-22T01:56:15.284Z,0.00
2018-08-22T01:57:15.257Z,0.00
2018-08-22T01:58:15.232Z,0.00
2018-08-22T01:59:15.213Z,0.00
2018-08-22T02:00:15.182Z,0.00
2018-08-22T02:01:15.158Z,0.00
2018-08-22T02:02:15.137Z,0.00
2018-08-22T02:03:15.148Z,0.00
2018-08-22T02:04:15.110Z,0.00
2018-08-22T02:05:15.172Z,0.00
2018-08-22T02:06:15.047Z,0.00
2018-08-22T02:07:15.091Z,0.00
2018-08-22T02:08:15.005Z,0.00
2018-08-22T02:09:14.991Z,0.00
2018-08-22T02:10:14.971Z,0.00
2018-08-22T02:11:15.007Z,0.00
2018-08-22T02:12:14.913Z,0.00
2018-08-22T02:13:15.950Z,0.00
2018-08-22T02:14:14.858Z,0.00
2018-08-22T02:15:14.939Z,0.00
2018-08-22T02:16:14.803Z,0.00
2018-08-22T02:17:14.842Z,0.00
2018-08-22T02:18:14.767Z,0.00
2018-08-22T02:19:14.853Z,0.00
2018-08-22T02:20:14.712Z,0.00
2018-08-22T02:21:14.775Z,0.00
2018-08-22T02:22:14.679Z,0.00
2018-08-22T02:23:14.684Z,0.00
2018-08-22T02:24:14.625Z,0.00
2018-08-22T02:25:14.795Z,0.00
2018-08-22T02:26:14.571Z,0.00
2018-08-22T02:27:14.608Z,0.00
2018-08-22T02:28:14.548Z,0.00
2018-08-22T02:29:14.626Z,0.00
2018-08-22T02:30:14.480Z,0.00
2018-08-22T02:31:14.533Z,0.00
2018-08-22T02:32:14.430Z,0.00
2018-08-22T02:33:14.444Z,0.00
2018-08-22T02:34:14.395Z,0.00
2018-08-22T02:35:14.480Z,0.00
2018-08-22T02:37:00.647Z,0.00
2018-08-22T02:38:00.611Z,0.00
2018-08-22T02:39:00.581Z,0.00
2018-08-22T02:40:00.532Z,0.00
2018-08-22T02:41:00.509Z,0.00
2018-08-22T02:42:00.492Z,0.00
2018-08-22T02:43:00.463Z,0.00
2018-08-22T02:44:00.442Z,0.00
2018-08-22T02:45:00.415Z,0.00
2018-08-22T02:46:00.402Z,0.00
2018-08-22T02:47:00.375Z,0.00
2018-08-22T02:48:00.378Z,0.00
2018-08-22T02:49:00.319Z,0.00
2018-08-22T02:50:00.291Z,0.00
2018-08-22T02:51:00.277Z,0.00
2018-08-22T02:52:00.259Z,0.00
2018-08-22T02:53:00.228Z,0.00
2018-08-22T02:54:46.641Z,0.00
2018-08-22T02:55:46.606Z,0.00
2018-08-22T02:56:46.549Z,0.00
2018-08-22T02:57:46.530Z,0.00
2018-08-22T02:58:46.572Z,0.00
2018-08-22T02:59:46.483Z,0.00
2018-08-22T03:00:46.469Z,0.00
2018-08-22T03:01:46.431Z,0.00
2018-08-22T03:02:46.487Z,0.00
2018-08-22T03:03:46.388Z,0.00
2018-08-22T03:04:47.427Z,0.00
2018-08-22T03:05:46.346Z,0.00
2018-08-22T03:06:46.406Z,0.00
2018-08-22T03:07:46.311Z,0.00
2018-08-22T03:08:46.320Z,0.00
2018-08-22T03:09:46.262Z,0.00
2018-08-22T03:10:46.339Z,0.00
2018-08-22T03:11:46.198Z,0.00
2018-08-22T03:12:46.257Z,0.00
2018-08-22T03:13:46.149Z,0.00
2018-08-22T03:15:32.225Z,0.00
2018-08-22T03:16:32.240Z,0.00
2018-08-22T03:17:32.158Z,0.00
2018-08-22T03:18:32.153Z,0.00
2018-08-22T03:19:32.091Z,0.00
2018-08-22T03:20:33.183Z,0.00
2018-08-22T03:21:32.051Z,0.00
2018-08-22T03:22:32.080Z,0.00
2018-08-22T03:23:32.011Z,0.00
2018-08-22T03:24:32.081Z,0.00
2018-08-22T03:25:31.957Z,0.00
2018-08-22T03:26:32.006Z,0.00
2018-08-22T03:27:31.916Z,0.00
2018-08-22T03:28:31.912Z,0.00
2018-08-22T03:29:31.865Z,0.00
2018-08-22T03:30:31.930Z,0.00
2018-08-22T03:31:31.826Z,0.00
2018-08-22T03:32:31.836Z,0.00
2018-08-22T03:33:31.797Z,0.00
2018-08-22T03:34:31.852Z,0.00
2018-08-22T03:35:31.761Z,0.00
2018-08-22T03:36:31.744Z,0.00
2018-08-22T03:37:31.689Z,0.00
2018-08-22T03:38:31.745Z,0.00
2018-08-22T03:39:31.646Z,0.00
2018-08-22T03:40:31.682Z,0.00
2018-08-22T03:41:31.595Z,0.00
2018-08-22T03:42:31.703Z,0.00
2018-08-22T03:43:31.547Z,0.00
2018-08-22T03:44:31.585Z,0.00
2018-08-22T03:45:31.501Z,0.00
2018-08-22T03:46:31.495Z,0.00
2018-08-22T03:47:31.449Z,0.00
2018-08-22T03:48:31.516Z,0.00
2018-08-22T03:49:31.462Z,0.00
2018-08-22T03:50:31.415Z,0.00
2018-08-22T03:51:31.373Z,0.00
2018-08-22T03:52:31.443Z,0.00
2018-08-22T03:53:31.312Z,0.00
2018-08-22T03:55:17.535Z,0.00
2018-08-22T03:56:17.464Z,0.00
2018-08-22T03:57:17.538Z,0.00
2018-08-22T03:58:17.412Z,0.00
2018-08-22T03:59:17.456Z,0.00
2018-08-22T04:00:17.376Z,0.00
2018-08-22T04:01:17.358Z,0.00
2018-08-22T04:02:17.328Z,0.00
2018-08-22T04:03:17.382Z,0.00
2018-08-22T04:04:17.291Z,0.00
2018-08-22T04:05:17.300Z,0.00
2018-08-22T04:06:17.231Z,0.00
2018-08-22T04:07:17.308Z,0.00
2018-08-22T04:08:17.179Z,0.00
2018-08-22T04:09:17.223Z,0.00
2018-08-22T04:10:17.155Z,0.00
2018-08-22T04:11:17.126Z,0.00
2018-08-22T04:12:17.108Z,0.00
2018-08-22T04:13:17.193Z,0.00
2018-08-22T04:14:17.036Z,0.00
2018-08-22T04:15:17.051Z,0.00
2018-08-22T04:16:16.996Z,0.00
2018-08-22T04:17:17.078Z,0.00
2018-08-22T04:18:16.941Z,0.00
2018-08-22T04:19:16.990Z,0.00
2018-08-22T04:20:16.909Z,0.00
2018-08-22T04:22:02.955Z,0.00
2018-08-22T04:23:02.924Z,0.00
2018-08-22T04:24:02.914Z,5.63
2018-08-22T04:25:02.862Z,5.63
2018-08-22T04:26:02.829Z,5.63
2018-08-22T04:27:02.802Z,5.63
2018-08-22T04:28:02.788Z,5.63
2018-08-22T04:29:02.771Z,5.63
2018-08-22T04:30:02.731Z,5.63
2018-08-22T04:31:02.772Z,5.63
2018-08-22T04:32:02.691Z,5.63
2018-08-22T04:33:02.665Z,5.63
2018-08-22T04:34:02.655Z,5.63
2018-08-22T04:35:02.616Z,5.63
2018-08-22T04:36:02.597Z,5.63
2018-08-22T04:37:02.577Z,11.25
2018-08-22T04:38:49.148Z,11.25
2018-08-22T04:39:49.094Z,11.25
2018-08-22T04:41:43.841Z,11.25
2018-08-22T04:42:43.866Z,11.25
2018-08-22T04:43:43.774Z,11.25
2018-08-22T04:44:43.761Z,11.25
2018-08-22T04:45:43.788Z,11.25
2018-08-22T04:46:43.698Z,11.25
2018-08-22T04:47:43.678Z,16.88
2018-08-22T04:48:43.647Z,16.88
2018-08-22T04:49:43.625Z,16.88
2018-08-22T04:50:43.723Z,16.88
2018-08-22T04:51:43.606Z,16.88
2018-08-22T04:52:43.551Z,16.88
2018-08-22T04:53:43.642Z,22.50
2018-08-22T04:54:43.505Z,22.50
2018-08-22T04:55:43.555Z,22.50
2018-08-22T04:56:43.462Z,22.50
2018-08-22T04:57:43.461Z,22.50
2018-08-22T04:58:43.408Z,22.50
2018-08-22T04:59:43.480Z,28.13
2018-08-22T05:00:43.380Z,28.13
2018-08-22T05:01:44.415Z,28.13
2018-08-22T05:02:43.310Z,28.13
2018-08-22T05:03:43.352Z,33.75
2018-08-22T05:04:43.268Z,33.75
2018-08-22T05:05:44.278Z,39.38
2018-08-22T05:06:43.235Z,39.38
2018-08-22T05:07:43.263Z,39.38
2018-08-22T05:08:43.171Z,45.00
2018-08-22T05:09:43.194Z,45.00
2018-08-22T05:10:43.128Z,50.63
2018-08-22T05:12:31.408Z,50.63
2018-08-22T05:13:31.436Z,56.25
2018-08-22T05:14:31.377Z,56.25
2018-08-22T05:15:31.347Z,61.88
2018-08-22T05:16:31.297Z,61.88
2018-08-22T05:17:31.355Z,61.88
2018-08-22T05:18:31.241Z,61.88
2018-08-22T05:19:31.273Z,61.88
2018-08-22T05:20:31.207Z,61.88
2018-08-22T05:21:31.188Z,61.88
2018-08-22T05:22:31.149Z,67.50
2018-08-22T05:23:31.181Z,73.13
2018-08-22T05:24:31.177Z,78.75
2018-08-22T05:25:32.122Z,78.75
2018-08-22T05:26:31.057Z,78.75
2018-08-22T05:27:31.114Z,78.75
2018-08-22T05:28:31.020Z,84.38
2018-08-22T05:29:31.028Z,84.38
2018-08-22T05:30:30.975Z,84.38
2018-08-22T05:31:31.049Z,84.38
2018-08-22T05:32:30.912Z,84.38
2018-08-22T05:33:30.948Z,78.75
2018-08-22T05:34:30.881Z,78.75
2018-08-22T05:35:30.963Z,78.75
2018-08-22T05:36:30.829Z,78.75
2018-08-22T05:37:31.928Z,78.75
2018-08-22T05:38:30.780Z,78.75
2018-08-22T05:39:31.808Z,84.38
2018-08-22T05:40:30.783Z,90.00
2018-08-22T05:41:31.727Z,95.63
2018-08-22T05:42:30.688Z,106.88
2018-08-22T05:43:30.713Z,106.88
2018-08-22T05:44:30.643Z,112.50
2018-08-22T05:45:30.727Z,118.13
2018-08-22T05:46:30.583Z,123.75
2018-08-22T05:47:31.658Z,129.38
2018-08-22T05:48:30.537Z,123.75
2018-08-22T05:49:30.550Z,129.38
2018-08-22T05:50:30.503Z,123.75
2018-08-22T05:51:30.571Z,123.75
2018-08-22T05:52:30.448Z,129.38
2018-08-22T05:53:30.456Z,129.38
2018-08-22T05:54:30.408Z,135.00
2018-08-22T05:55:30.372Z,135.00
2018-08-22T05:56:30.359Z,135.00
2018-08-22T05:57:30.400Z,135.00
2018-08-22T05:59:17.139Z,135.00
2018-08-22T06:00:16.008Z,135.00
2018-08-22T06:01:15.975Z,135.00
2018-08-22T06:02:15.956Z,140.63
2018-08-22T06:03:15.954Z,146.25
2018-08-22T06:04:15.899Z,146.25
2018-08-22T06:05:15.874Z,151.88
2018-08-22T06:06:15.867Z,157.50
2018-08-22T06:07:15.845Z,163.13
2018-08-22T06:08:15.966Z,163.13
2018-08-22T06:09:15.882Z,168.75
2018-08-22T06:11:22.660Z,174.38
2018-08-22T06:12:23.560Z,174.38
2018-08-22T06:13:22.399Z,168.75
2018-08-22T06:14:22.410Z,168.75
2018-08-22T06:15:22.387Z,163.13
2018-08-22T06:16:22.459Z,163.13
2018-08-22T06:17:22.342Z,163.13
2018-08-22T06:18:22.383Z,157.50
2018-08-22T06:19:22.279Z,157.50
2018-08-22T06:20:22.382Z,163.13
2018-08-22T06:21:22.244Z,151.88
2018-08-22T06:22:22.263Z,151.88
2018-08-22T06:23:22.185Z,151.88
2018-08-22T06:24:22.281Z,146.25
2018-08-22T06:25:22.179Z,135.00
2018-08-22T06:26:22.225Z,129.38
2018-08-22T06:27:22.132Z,123.75
2018-08-22T06:28:22.094Z,118.13
2018-08-22T06:29:22.044Z,118.13
2018-08-22T06:30:22.135Z,118.13
2018-08-22T06:31:21.981Z,118.13
2018-08-22T06:32:22.038Z,123.75
2018-08-22T06:33:21.953Z,129.38
2018-08-22T06:34:21.974Z,135.00
2018-08-22T06:35:21.892Z,140.63
2018-08-22T06:36:22.049Z,135.00
2018-08-22T06:37:21.851Z,135.00
2018-08-22T06:38:21.858Z,135.00
2018-08-22T06:39:21.789Z,140.63
2018-08-22T06:41:09.695Z,140.63
2018-08-22T06:42:09.698Z,140.63
2018-08-22T06:43:09.608Z,146.25
2018-08-22T06:44:09.661Z,151.88
2018-08-22T06:45:09.670Z,151.88
2018-08-22T06:46:09.572Z,157.50
2018-08-22T06:47:09.554Z,157.50
2018-08-22T06:48:09.489Z,163.13
2018-08-22T06:49:09.481Z,163.13
2018-08-22T06:50:09.454Z,174.38
2018-08-22T06:51:09.429Z,185.63
2018-08-22T06:52:09.433Z,185.63
2018-08-22T06:53:09.388Z,180.00
2018-08-22T06:54:09.351Z,174.38
2018-08-22T06:55:09.328Z,168.75
2018-08-22T06:56:55.404Z,163.13
2018-08-22T06:57:55.314Z,157.50
2018-08-22T06:58:55.297Z,157.50
2018-08-22T06:59:55.289Z,163.13
2018-08-22T07:00:55.302Z,157.50
2018-08-22T07:01:55.355Z,157.50
2018-08-22T07:02:55.198Z,157.50
2018-08-22T07:03:55.208Z,157.50
2018-08-22T07:04:55.150Z,163.13
2018-08-22T07:05:55.159Z,157.50
2018-08-22T07:06:55.093Z,157.50
2018-08-22T07:07:55.114Z,157.50
2018-08-22T07:08:55.050Z,157.50
2018-08-22T07:09:55.060Z,157.50
2018-08-22T07:10:55.026Z,157.50
2018-08-22T07:11:54.982Z,157.50
2018-08-22T07:12:54.976Z,157.50
2018-08-22T07:13:54.962Z,163.13
2018-08-22T07:14:54.934Z,163.13
2018-08-22T07:15:54.909Z,163.13
2018-08-22T07:16:54.859Z,163.13
2018-08-22T07:17:54.837Z,163.13
2018-08-22T07:18:54.824Z,163.13
2018-08-22T07:19:54.806Z,163.13
2018-08-22T07:20:54.888Z,163.13
2018-08-22T07:21:54.749Z,163.13
2018-08-22T07:22:54.798Z,163.13
2018-08-22T07:23:54.699Z,163.13
2018-08-22T07:24:54.683Z,163.13
2018-08-22T07:25:54.663Z,163.13
2018-08-22T07:26:54.628Z,163.13
2018-08-22T07:27:54.598Z,163.13
2018-08-22T07:28:54.628Z,157.50
2018-08-22T07:29:54.554Z,157.50
2018-08-22T07:30:54.540Z,157.50
2018-08-22T07:32:40.674Z,157.50
2018-08-22T07:33:40.609Z,157.50
2018-08-22T07:34:40.576Z,157.50
2018-08-22T07:35:40.562Z,157.50
2018-08-22T07:36:40.547Z,157.50
2018-08-22T07:37:40.563Z,157.50
2018-08-22T07:38:40.495Z,157.50
2018-08-22T07:39:40.484Z,157.50
2018-08-22T07:40:40.429Z,157.50
2018-08-22T07:41:40.408Z,157.50
2018-08-22T07:42:40.408Z,157.50
2018-08-22T07:43:40.376Z,157.50
2018-08-22T07:44:40.339Z,157.50
2018-08-22T07:45:40.324Z,157.50
2018-08-22T07:46:40.304Z,157.50
2018-08-22T07:47:40.275Z,163.13
2018-08-22T07:48:40.249Z,163.13
2018-08-22T07:49:40.219Z,163.13
2018-08-22T07:50:40.294Z,163.13
2018-08-22T07:51:40.195Z,163.13
2018-08-22T07:52:40.198Z,163.13
2018-08-22T07:53:40.131Z,163.13
2018-08-22T07:54:40.117Z,163.13
2018-08-22T07:55:40.078Z,163.13
2018-08-22T07:56:40.053Z,163.13
2018-08-22T07:57:40.059Z,163.13
2018-08-22T07:58:40.014Z,163.13
2018-08-22T07:59:39.994Z,163.13
2018-08-22T08:00:39.958Z,163.13
2018-08-22T08:01:40.008Z,163.13
2018-08-22T08:02:39.983Z,163.13
2018-08-22T08:03:39.900Z,163.13
2018-08-22T08:04:39.870Z,163.13
2018-08-22T08:05:40.002Z,163.13
2018-08-22T08:06:39.829Z,163.13
2018-08-22T08:07:39.900Z,163.13
2018-08-22T08:08:39.847Z,163.13
2018-08-22T08:09:39.774Z,168.75
2018-08-22T08:10:39.741Z,168.75
2018-08-22T08:11:39.794Z,168.75
2018-08-22T08:12:39.699Z,168.75
2018-08-22T08:13:40.814Z,168.75
2018-08-22T08:14:39.635Z,168.75
2018-08-22T08:15:40.726Z,168.75
2018-08-22T08:16:39.593Z,163.13
2018-08-22T08:17:39.732Z,168.75
2018-08-22T08:18:39.538Z,163.13
2018-08-22T08:19:39.514Z,168.75
2018-08-22T08:20:39.500Z,174.38
2018-08-22T08:21:39.502Z,180.00
2018-08-22T08:22:39.467Z,180.00
2018-08-22T08:23:39.624Z,191.25
2018-08-22T08:24:39.397Z,202.50
2018-08-22T08:25:39.549Z,202.50
2018-08-22T08:26:39.343Z,196.88
2018-08-22T08:27:40.472Z,196.88
2018-08-22T08:28:39.293Z,196.88
2018-08-22T08:29:39.462Z,196.88
2018-08-22T08:30:39.355Z,196.88
2018-08-22T08:31:39.363Z,196.88
2018-08-22T08:32:39.215Z,191.25
2018-08-22T08:33:39.413Z,185.63
2018-08-22T08:34:39.149Z,185.63
2018-08-22T08:35:39.294Z,180.00
2018-08-22T08:36:39.145Z,180.00
2018-08-22T08:37:39.084Z,174.38
2018-08-22T08:38:39.194Z,174.38
2018-08-22T08:39:39.025Z,168.75
2018-08-22T08:40:39.116Z,168.75
2018-08-22T08:41:39.026Z,168.75
2018-08-22T08:42:39.129Z,168.75
2018-08-22T08:43:38.931Z,168.75
2018-08-22T08:44:38.935Z,168.75
2018-08-22T08:45:38.907Z,168.75
2018-08-22T08:47:25.861Z,168.75
2018-08-22T08:48:25.855Z,163.13
2018-08-22T08:49:25.863Z,168.75
2018-08-22T08:50:25.914Z,168.75
2018-08-22T08:51:25.738Z,168.75
2018-08-22T08:52:26.891Z,168.75
2018-08-22T08:53:25.650Z,168.75
2018-08-22T08:54:25.805Z,168.75
2018-08-22T08:55:25.648Z,168.75
2018-08-22T08:56:25.693Z,168.75
2018-08-22T08:57:25.660Z,168.75
2018-08-22T08:58:25.701Z,168.75
2018-08-22T08:59:25.518Z,174.38
2018-08-22T09:00:25.611Z,174.38
2018-08-22T09:01:25.463Z,174.38
2018-08-22T09:02:25.628Z,185.63
2018-08-22T09:03:25.415Z,180.00
2018-08-22T09:04:25.534Z,180.00
2018-08-22T09:05:25.384Z,174.38
2018-08-22T09:06:25.600Z,174.38
2018-08-22T09:07:25.337Z,174.38
2018-08-22T09:08:25.455Z,180.00
2018-08-22T09:09:25.304Z,180.00
2018-08-22T09:10:25.255Z,180.00
2018-08-22T09:11:25.288Z,180.00
2018-08-22T09:12:25.277Z,185.63
2018-08-22T09:13:25.295Z,185.63
2018-08-22T09:14:25.223Z,185.63
2018-08-22T09:15:25.222Z,185.63
2018-08-22T09:16:25.132Z,185.63
2018-08-22T09:17:25.273Z,185.63
2018-08-22T09:18:25.074Z,191.25
2018-08-22T09:19:25.160Z,191.25
2018-08-22T09:20:25.020Z,185.63
2018-08-22T09:21:25.088Z,185.63
2018-08-22T09:22:24.970Z,180.00
2018-08-22T09:23:25.089Z,180.00
2018-08-22T09:24:24.937Z,191.25
2018-08-22T09:25:24.903Z,185.63
2018-08-22T09:26:25.009Z,185.63
2018-08-22T09:27:24.861Z,185.63
2018-08-22T09:28:24.847Z,185.63
2018-08-22T09:29:24.852Z,185.63
2018-08-22T09:30:24.918Z,191.25
2018-08-22T09:31:24.797Z,185.63
2018-08-22T09:32:24.742Z,185.63
2018-08-22T09:33:24.729Z,191.25
2018-08-22T09:34:24.723Z,185.63
2018-08-22T09:35:24.701Z,196.88
2018-08-22T09:36:24.663Z,191.25
2018-08-22T09:37:24.629Z,196.88
2018-08-22T09:38:24.603Z,202.50
2018-08-22T09:39:24.606Z,196.88
2018-08-22T09:40:24.626Z,196.88
2018-08-22T09:41:24.547Z,202.50
2018-08-22T09:42:24.516Z,196.88
2018-08-22T09:43:24.484Z,196.88
2018-08-22T09:44:24.472Z,196.88
2018-08-22T09:45:24.449Z,202.50
2018-08-22T09:46:24.468Z,202.50
2018-08-22T09:47:24.412Z,208.13
2018-08-22T09:48:25.480Z,213.75
2018-08-22T09:49:24.352Z,213.75
2018-08-22T09:50:24.333Z,208.13
2018-08-22T09:51:24.377Z,213.75
2018-08-22T09:52:24.304Z,213.75
2018-08-22T09:53:24.260Z,213.75
2018-08-22T09:54:24.307Z,208.13
2018-08-22T09:55:24.237Z,208.13
2018-08-22T09:56:24.192Z,213.75
2018-08-22T09:57:24.229Z,208.13
2018-08-22T09:58:24.138Z,208.13
2018-08-22T09:59:24.133Z,208.13
2018-08-22T10:00:24.105Z,208.13
2018-08-22T10:01:25.194Z,208.13
2018-08-22T10:02:24.042Z,202.50
2018-08-22T10:03:24.050Z,202.50
2018-08-22T10:04:24.021Z,202.50
2018-08-22T10:05:24.073Z,202.50
2018-08-22T10:06:24.024Z,213.75
2018-08-22T10:07:24.032Z,208.13
2018-08-22T10:08:23.913Z,208.13
2018-08-22T10:09:23.992Z,208.13
2018-08-22T10:10:23.928Z,213.75
2018-08-22T10:11:23.899Z,219.38
2018-08-22T10:12:23.888Z,219.38
2018-08-22T10:13:23.820Z,225.00
2018-08-22T10:14:23.794Z,230.63
2018-08-22T10:15:23.845Z,230.63
2018-08-22T10:16:23.746Z,225.00
2018-08-22T10:17:23.865Z,225.00
2018-08-22T10:18:23.696Z,230.63
2018-08-22T10:19:23.752Z,230.63
2018-08-22T10:20:23.653Z,230.63
2018-08-22T10:21:24.702Z,219.38
2018-08-22T10:22:23.585Z,213.75
2018-08-22T10:24:10.470Z,208.13
2018-08-22T10:25:10.445Z,213.75
2018-08-22T10:26:10.396Z,213.75
2018-08-22T10:27:10.439Z,208.13
2018-08-22T10:28:10.347Z,202.50
2018-08-22T10:29:10.361Z,208.13
2018-08-22T10:30:10.323Z,208.13
2018-08-22T10:31:10.280Z,213.75
2018-08-22T10:32:10.302Z,208.13
2018-08-22T10:33:10.237Z,213.75
2018-08-22T10:34:10.231Z,213.75
2018-08-22T10:35:10.236Z,213.75
2018-08-22T10:36:10.202Z,219.38
2018-08-22T10:37:10.139Z,225.00
2018-08-22T10:38:10.112Z,225.00
2018-08-22T10:39:10.097Z,230.63
2018-08-22T10:40:10.074Z,230.63
2018-08-22T10:41:10.087Z,230.63
2018-08-22T10:42:10.036Z,225.00
2018-08-22T10:43:10.022Z,219.38
2018-08-22T10:44:09.978Z,219.38
2018-08-22T10:45:11.100Z,219.38
2018-08-22T10:46:09.945Z,213.75
2018-08-22T10:47:09.947Z,213.75
2018-08-22T10:48:09.890Z,213.75
2018-08-22T10:49:09.877Z,219.38
2018-08-22T10:50:09.884Z,219.38
2018-08-22T10:51:09.818Z,219.38
2018-08-22T10:52:09.794Z,219.38
2018-08-22T10:53:09.896Z,225.00
2018-08-22T10:54:09.764Z,225.00
2018-08-22T10:55:09.731Z,225.00
2018-08-22T10:56:09.739Z,225.00
2018-08-22T10:57:09.894Z,225.00
2018-08-22T10:58:09.669Z,225.00
2018-08-22T10:59:09.637Z,225.00
2018-08-22T11:00:09.630Z,225.00
2018-08-22T11:01:10.809Z,225.00
2018-08-22T11:02:09.576Z,230.63
2018-08-22T11:03:09.646Z,230.63
2018-08-22T11:04:09.535Z,230.63
2018-08-22T11:05:09.572Z,230.63
2018-08-22T11:06:09.513Z,225.00
2018-08-22T11:07:09.475Z,225.00
2018-08-22T11:08:09.439Z,236.25
2018-08-22T11:09:09.416Z,230.63
2018-08-22T11:10:09.404Z,236.25
2018-08-22T11:11:58.154Z,264.38
2018-08-22T11:13:00.086Z,270.00
2018-08-22T11:13:58.100Z,258.75
2018-08-22T11:14:58.166Z,275.63
2018-08-22T11:15:58.008Z,281.25
2018-08-22T11:16:58.017Z,286.88
2018-08-22T11:17:58.020Z,286.88
2018-08-22T11:18:57.946Z,292.50
2018-08-22T11:19:57.910Z,320.63
2018-08-22T11:20:57.893Z,348.75
2018-08-22T11:21:57.901Z,331.88
2018-08-22T11:22:57.847Z,343.13
2018-08-22T11:23:57.829Z,286.88
2018-08-22T11:24:57.807Z,253.13
2018-08-22T11:25:57.788Z,236.25
2018-08-22T11:26:57.755Z,236.25
2018-08-22T11:27:57.741Z,241.88
2018-08-22T11:28:57.714Z,241.88
2018-08-22T11:29:57.751Z,236.25
2018-08-22T11:30:57.673Z,253.13
2018-08-22T11:31:57.651Z,241.88
2018-08-22T11:32:57.624Z,270.00
2018-08-22T11:33:57.757Z,275.63
2018-08-22T11:34:57.585Z,286.88
2018-08-22T11:35:57.572Z,303.75
2018-08-22T11:36:57.605Z,303.75
2018-08-22T11:37:57.524Z,286.88
2018-08-22T11:38:57.513Z,270.00
2018-08-22T11:39:44.295Z,270.00
2018-08-22T11:40:44.221Z,258.75
2018-08-22T11:41:44.195Z,258.75
2018-08-22T11:42:44.177Z,258.75
2018-08-22T11:43:44.149Z,264.38
2018-08-22T11:44:44.203Z,270.00
2018-08-22T11:45:44.224Z,286.88
2018-08-22T11:46:44.151Z,286.88
2018-08-22T11:47:44.079Z,281.25
2018-08-22T11:48:44.050Z,275.63
2018-08-22T11:49:44.024Z,270.00
2018-08-22T11:50:44.028Z,270.00
2018-08-22T11:51:43.982Z,264.38
2018-08-22T11:52:43.973Z,253.13
2018-08-22T11:53:43.935Z,253.13
2018-08-22T11:54:43.919Z,241.88
2018-08-22T11:55:43.919Z,241.88
2018-08-22T11:56:43.864Z,258.75
2018-08-22T11:57:43.849Z,270.00
2018-08-22T11:58:43.821Z,264.38
2018-08-22T11:59:43.825Z,247.50
2018-08-22T12:00:43.817Z,236.25
2018-08-22T12:01:43.764Z,236.25
2018-08-22T12:02:43.738Z,236.25
2018-08-22T12:03:43.725Z,230.63
2018-08-22T12:04:43.707Z,230.63
2018-08-22T12:05:43.679Z,225.00
2018-08-22T12:06:43.654Z,219.38
2018-08-22T12:07:43.632Z,225.00
2018-08-22T12:08:43.635Z,225.00
2018-08-22T12:09:43.587Z,219.38
2018-08-22T12:10:43.570Z,219.38
2018-08-22T12:11:43.560Z,219.38
2018-08-22T12:12:43.528Z,219.38
2018-08-22T12:13:43.497Z,213.75
2018-08-22T12:14:43.478Z,213.75
2018-08-22T12:15:43.468Z,219.38
2018-08-22T12:16:43.462Z,219.38
2018-08-22T12:17:43.431Z,236.25
2018-08-22T12:18:44.427Z,281.25
2018-08-22T12:19:43.372Z,275.63
2018-08-22T12:20:43.409Z,196.88
2018-08-22T12:21:43.431Z,174.38
2018-08-22T12:22:43.316Z,157.50
2018-08-22T12:23:43.376Z,196.88
2018-08-22T12:24:43.281Z,196.88
2018-08-22T12:25:43.339Z,202.50
2018-08-22T12:26:43.339Z,196.88
2018-08-22T12:28:29.193Z,196.88
2018-08-22T12:29:29.105Z,202.50
2018-08-22T12:30:29.151Z,202.50
2018-08-22T12:31:29.051Z,202.50
2018-08-22T12:32:29.059Z,202.50
2018-08-22T12:33:29.012Z,202.50
2018-08-22T12:34:30.002Z,196.88
2018-08-22T12:35:28.962Z,196.88
2018-08-22T12:36:28.946Z,202.50
2018-08-22T12:37:28.935Z,196.88
2018-08-22T12:38:28.929Z,196.88
2018-08-22T12:39:28.894Z,191.25
2018-08-22T12:40:28.847Z,208.13
2018-08-22T12:41:28.833Z,219.38
2018-08-22T12:42:28.810Z,180.00
2018-08-22T12:43:28.785Z,196.88
2018-08-22T12:44:28.807Z,202.50
2018-08-22T12:45:28.744Z,168.75
2018-08-22T12:46:28.722Z,163.13
2018-08-22T12:47:28.773Z,202.50
2018-08-22T12:48:28.676Z,225.00
2018-08-22T12:49:28.760Z,225.00
2018-08-22T12:50:28.712Z,225.00
2018-08-22T12:51:28.677Z,219.38
2018-08-22T12:52:28.599Z,213.75
2018-08-22T12:53:28.684Z,213.75
2018-08-22T12:54:28.551Z,213.75
2018-08-22T12:55:28.627Z,213.75
2018-08-22T12:56:28.542Z,219.38
2018-08-22T12:57:28.609Z,202.50
2018-08-22T12:58:28.455Z,213.75
2018-08-22T12:59:28.577Z,219.38
2018-08-22T13:00:28.422Z,219.38
2018-08-22T13:01:28.539Z,219.38
2018-08-22T13:02:28.386Z,196.88
2018-08-22T13:03:28.485Z,202.50